Fordyce, Nebraska
Current Conditions -  °F | °C
As of 5:15 AM on Sunday 21 Dec 2014 (Local Time) from KYKN Reporting Station
Overcast Overcast  
Wind Chill: -4°   Ceiling: 400
Heat Index:   Visibility: 4mi
Dew Point: -1°   Wind: 9mph
Humidity: 93%   Direction: 180°S
Pressure: 29.83"   Gusts: NA
Location:  42.7°N, 97.36°W
Report Text: KYKN 211115Z AUTO 18008KT 4SM OVC004 00/M01 A2983 RMK AO1
Loading
Personal Weather Stations






























Interactive Weather Map New forecast layout! Learn more

10-Day Weather Forecast

Advertisements
Track Severe Weather on mobile